Main page
METAR-TAF:

METAR-TAF

Airports :

Ljungbyheds flygplats

Ljungbyhed, Sweden

latitude: 56-04N, longitude: 013-12E, elevation: 43 m

Current weather observation

The report was made 15 minutes ago, at 14:20 UTC
Wind 13 kt from the South
Temperature 5°C
Humidity 100%
Pressure 1008 hPa
Visibility: 7000 m
drizzle

METAR: ESTL 201420Z AUTO 17013KT 7000 DZ OVC005/// 05/05 Q1008

Time: 15:35 (14:35 UTC)

Forecast

The report was made 3 hours and 30 minutes ago, at 11:05 UTC
Forecast valid from 20 at 12 UTC to 20 at 16 UTC
Wind 15 kt from the South with gusts up to 25 kt
Visibility: 3000 m
Broken clouds at a height of 600 ft
rain, drizzle
Temporary
from 20 at 12 UTC to 20 at 16 UTC
Visibility: 6000 m
Broken clouds at a height of 1200 ft
light rain, drizzle

TAF: ESTL 201105Z 2012/2016 17015G25KT 3000 RADZ BKN006 TEMPO 2012/2016 6000 -RADZ BKN012

Weather observations and forecasts of more than 4000 airports (METAR and TAF reports).

The available stations are represented by yellow and red dots on the map.

Hover mouse over dot to see the name of the station.

Then click to see weather observations and forecasts.

To change the map : click on the green buttons with a black cross to zoom in, on the green button with a dash to zoom out, or on the green arrows for adjacent maps.


METAR-TAF: